createdAt,value
2023-12-02T00:01:24.504Z,3.03
2023-12-02T00:03:52.343Z,6.70
2023-12-02T00:06:20.748Z,2.28
2023-12-02T00:08:51.119Z,7.20
2023-12-02T00:11:18.981Z,2.35
2023-12-02T00:13:47.724Z,1.30
2023-12-02T00:16:15.547Z,1.40
2023-12-02T00:18:43.348Z,1.15
2023-12-02T00:21:11.291Z,3.63
2023-12-02T00:23:39.116Z,1.90
2023-12-02T00:26:06.916Z,1.13
2023-12-02T00:28:35.158Z,1.20
2023-12-02T00:31:03.075Z,1.48
2023-12-02T00:33:31.289Z,1.20
2023-12-02T00:35:59.234Z,1.20
2023-12-02T00:38:26.934Z,1.45
2023-12-02T00:40:54.741Z,1.35
2023-12-02T00:43:22.424Z,0.98
2023-12-02T00:45:50.644Z,1.42
2023-12-02T00:48:18.447Z,1.30
2023-12-02T00:50:46.655Z,1.10
2023-12-02T00:53:14.780Z,5.90
2023-12-02T00:55:42.784Z,2.05
2023-12-02T00:58:10.545Z,0.98
2023-12-02T01:00:38.371Z,1.23
2023-12-02T01:03:06.667Z,1.55
2023-12-02T01:05:36.795Z,0.98
2023-12-02T01:08:04.834Z,1.30
2023-12-02T01:10:32.600Z,0.85
2023-12-02T01:13:00.464Z,1.10
2023-12-02T01:15:28.896Z,1.17
2023-12-02T01:17:56.663Z,0.60
2023-12-02T01:20:24.560Z,1.08
2023-12-02T01:22:52.412Z,1.00
2023-12-02T01:25:20.107Z,1.40
2023-12-02T01:27:47.847Z,0.90
2023-12-02T01:30:15.759Z,0.73
2023-12-02T01:32:43.648Z,1.95
2023-12-02T01:35:11.441Z,0.70
2023-12-02T01:37:39.241Z,0.75
2023-12-02T01:40:08.845Z,0.77
2023-12-02T01:42:36.676Z,0.70
2023-12-02T01:45:04.798Z,2.85
2023-12-02T01:47:32.612Z,1.00
2023-12-02T01:50:02.008Z,1.10
2023-12-02T01:52:29.860Z,1.00
2023-12-02T01:54:57.957Z,0.73
2023-12-02T01:57:26.097Z,0.70
2023-12-02T01:59:55.621Z,0.90
2023-12-02T02:02:23.710Z,0.80
2023-12-02T02:04:51.646Z,1.17
2023-12-02T02:07:19.569Z,0.95
2023-12-02T02:09:48.408Z,2.75
2023-12-02T02:12:16.905Z,1.52
2023-12-02T02:14:46.604Z,2.63
2023-12-02T02:17:14.315Z,0.65
2023-12-02T02:19:42.019Z,0.70
2023-12-02T02:22:10.404Z,1.13
2023-12-02T02:24:38.596Z,0.80
2023-12-02T02:27:07.120Z,0.52
2023-12-02T02:29:34.826Z,0.82
2023-12-02T02:32:02.738Z,0.70
2023-12-02T02:34:30.546Z,1.48
2023-12-02T02:36:58.360Z,0.80
2023-12-02T02:39:26.362Z,1.17
2023-12-02T02:41:56.058Z,1.05
2023-12-02T02:44:24.065Z,0.88
2023-12-02T02:46:52.101Z,2.97
2023-12-02T02:49:21.188Z,1.92
2023-12-02T02:51:48.952Z,0.95
2023-12-02T02:54:16.838Z,0.57
2023-12-02T02:56:45.119Z,0.63
2023-12-02T02:59:13.020Z,0.57
2023-12-02T03:01:44.358Z,0.60
2023-12-02T03:04:12.182Z,0.80
2023-12-02T03:06:40.070Z,0.70
2023-12-02T03:09:08.558Z,1.50
2023-12-02T03:11:36.317Z,0.70
2023-12-02T03:14:04.421Z,0.73
2023-12-02T03:16:32.108Z,0.98
2023-12-02T03:19:00.328Z,6.38
2023-12-02T03:21:28.155Z,1.08
2023-12-02T03:23:56.330Z,0.85
2023-12-02T03:26:25.579Z,0.57
2023-12-02T03:28:53.777Z,0.75
2023-12-02T03:31:21.411Z,1.05
2023-12-02T03:33:49.481Z,0.80
2023-12-02T03:36:17.318Z,1.00
2023-12-02T03:38:45.169Z,0.35
2023-12-02T03:41:12.969Z,2.28
2023-12-02T03:43:51.994Z,1.00
2023-12-02T04:01:44.555Z,0.40
2023-12-02T04:04:12.457Z,0.57
2023-12-02T04:06:40.290Z,0.95
2023-12-02T04:09:10.827Z,0.28
2023-12-02T04:11:38.852Z,1.08
2023-12-02T04:14:09.708Z,0.35
2023-12-02T04:16:42.056Z,1.30
2023-12-02T04:19:10.562Z,0.52
2023-12-02T04:21:42.915Z,0.17
2023-12-02T04:24:10.839Z,0.20
2023-12-02T04:26:39.339Z,1.30
2023-12-02T04:29:07.859Z,0.22
2023-12-02T04:31:35.653Z,0.20
2023-12-02T04:34:03.436Z,0.22
2023-12-02T04:36:32.044Z,0.20
2023-12-02T04:39:00.003Z,0.20
2023-12-02T04:41:27.708Z,0.30
2023-12-02T04:43:55.538Z,0.35
2023-12-02T04:46:23.229Z,0.22
2023-12-02T04:48:51.150Z,0.20
2023-12-02T04:51:18.965Z,0.20
2023-12-02T04:53:46.805Z,0.90
2023-12-02T04:56:14.530Z,0.20
2023-12-02T04:58:43.561Z,0.32
2023-12-02T05:01:11.305Z,0.20
2023-12-02T05:03:39.184Z,0.73
2023-12-02T05:06:09.436Z,1.02
2023-12-02T05:08:37.271Z,4.85
2023-12-02T05:11:05.317Z,0.22
2023-12-02T05:13:33.006Z,0.10
2023-12-02T05:16:00.828Z,0.47
2023-12-02T05:18:28.733Z,0.30
2023-12-02T05:20:56.703Z,0.40
2023-12-02T05:23:24.449Z,0.68
2023-12-02T05:25:52.163Z,0.52
2023-12-02T05:28:20.090Z,0.40
2023-12-02T05:30:47.786Z,0.75
2023-12-02T05:33:15.537Z,0.40
2023-12-02T05:35:43.320Z,0.40
2023-12-02T05:38:11.128Z,0.45
2023-12-02T05:40:38.776Z,0.40
2023-12-02T05:43:06.489Z,1.85
2023-12-02T05:45:34.304Z,0.40
2023-12-02T05:48:02.259Z,0.35
2023-12-02T05:50:30.085Z,0.55
2023-12-02T05:52:58.087Z,2.17
2023-12-02T05:55:27.678Z,1.02
2023-12-02T05:57:55.400Z,0.40
2023-12-02T06:00:23.220Z,0.40
2023-12-02T06:02:50.932Z,0.45
2023-12-02T06:05:18.779Z,0.32
2023-12-02T06:07:46.477Z,0.43
2023-12-02T06:10:14.276Z,0.20
2023-12-02T06:12:42.251Z,0.30
2023-12-02T06:15:12.261Z,0.20
2023-12-02T06:17:41.777Z,0.40
2023-12-02T06:20:12.021Z,2.72
2023-12-02T06:22:39.923Z,0.20
2023-12-02T06:25:08.178Z,0.20
2023-12-02T06:27:36.144Z,0.45
2023-12-02T06:30:04.587Z,0.50
2023-12-02T06:32:32.346Z,0.60
2023-12-02T06:35:00.145Z,1.40
2023-12-02T06:37:27.871Z,0.40
2023-12-02T06:39:55.565Z,0.20
2023-12-02T06:42:23.511Z,3.72
2023-12-02T06:44:51.333Z,22.63
2023-12-02T06:47:19.209Z,15.85
2023-12-02T06:49:48.042Z,2.28
2023-12-02T06:52:15.876Z,7.18
2023-12-02T06:54:43.608Z,2.30
2023-12-02T06:57:11.562Z,1.35
2023-12-02T06:59:39.429Z,3.08
2023-12-02T07:02:07.916Z,4.63
2023-12-02T07:04:35.695Z,8.68
2023-12-02T07:07:03.602Z,4.07
2023-12-02T07:09:31.484Z,2.10
2023-12-02T07:11:59.392Z,4.15
2023-12-02T07:14:27.203Z,4.00
2023-12-02T07:16:55.020Z,0.73
2023-12-02T07:19:22.924Z,0.68
2023-12-02T07:21:52.038Z,1.30
2023-12-02T07:24:20.067Z,2.30
2023-12-02T07:26:47.769Z,24.75
2023-12-02T07:29:15.475Z,16.83
2023-12-02T07:31:46.702Z,26.05
2023-12-02T07:34:14.596Z,32.25
2023-12-02T07:36:42.278Z,19.08
2023-12-02T07:39:10.005Z,26.42
2023-12-02T07:41:37.821Z,9.43
2023-12-02T07:44:05.606Z,12.43
2023-12-02T07:46:33.484Z,4.20
2023-12-02T07:49:01.289Z,1.92
2023-12-02T07:51:29.244Z,3.13
2023-12-02T07:53:57.764Z,5.63
2023-12-02T07:56:25.533Z,2.58
2023-12-02T07:58:55.287Z,0.90
2023-12-02T08:01:23.337Z,1.23
2023-12-02T08:03:51.130Z,2.00
2023-12-02T08:06:18.885Z,0.50
2023-12-02T08:08:48.467Z,1.02
2023-12-02T08:11:17.035Z,0.47
2023-12-02T08:13:46.262Z,1.15
2023-12-02T08:16:14.102Z,0.30
2023-12-02T08:18:44.072Z,0.68
2023-12-02T08:21:11.913Z,6.13
2023-12-02T08:23:39.898Z,1.85
2023-12-02T08:26:08.148Z,2.97
2023-12-02T08:28:35.903Z,1.33
2023-12-02T08:31:03.949Z,8.30
2023-12-02T08:33:31.613Z,13.30
2023-12-02T08:36:00.046Z,12.98
2023-12-02T08:38:27.820Z,12.50
2023-12-02T08:40:55.507Z,3.88
2023-12-02T08:43:25.657Z,9.98
2023-12-02T08:45:53.358Z,23.00
2023-12-02T08:48:21.119Z,11.82
2023-12-02T08:50:48.891Z,9.00
2023-12-02T08:53:16.607Z,7.53
2023-12-02T08:55:44.372Z,26.77
2023-12-02T08:58:12.271Z,22.48
2023-12-02T09:00:39.993Z,6.68
2023-12-02T09:03:07.931Z,12.20
2023-12-02T09:05:35.704Z,15.52
2023-12-02T09:08:03.666Z,5.70
2023-12-02T09:10:31.518Z,1.27
2023-12-02T09:12:59.298Z,3.35
2023-12-02T09:15:41.240Z,2.78
2023-12-02T09:18:12.700Z,5.35
2023-12-02T09:20:48.278Z,0.98
2023-12-02T09:23:21.505Z,1.63
2023-12-02T09:25:52.257Z,1.35
2023-12-02T09:28:21.116Z,1.02
2023-12-02T09:31:07.722Z,1.27
2023-12-02T09:33:39.237Z,1.25
2023-12-02T09:36:09.096Z,1.15
2023-12-02T09:38:37.629Z,0.90
2023-12-02T09:41:30.068Z,6.55
2023-12-02T09:44:05.491Z,3.95
2023-12-02T09:46:37.698Z,7.80
2023-12-02T09:49:11.929Z,13.73
2023-12-02T09:51:48.677Z,6.57
2023-12-02T09:54:28.018Z,2.38
2023-12-02T09:57:09.539Z,3.72
2023-12-02T10:00:21.257Z,2.85
2023-12-02T10:03:03.712Z,1.52
2023-12-02T10:05:44.452Z,4.60
2023-12-02T10:08:30.384Z,3.33
2023-12-02T10:11:33.325Z,2.72
2023-12-02T10:14:06.270Z,29.00
2023-12-02T10:16:36.781Z,9.32
2023-12-02T10:19:08.038Z,1.67
2023-12-02T10:21:38.392Z,1.35
2023-12-02T10:24:11.774Z,4.20
2023-12-02T10:27:05.027Z,1.17
2023-12-02T10:30:04.941Z,1.73
2023-12-02T10:32:39.563Z,5.15
2023-12-02T10:35:10.095Z,1.23
2023-12-02T10:37:43.363Z,6.88
2023-12-02T10:40:15.420Z,7.18
2023-12-02T10:43:12.239Z,3.20
2023-12-02T10:45:42.831Z,3.40
2023-12-02T10:48:14.354Z,6.30
2023-12-02T10:50:42.234Z,5.53
2023-12-02T10:53:11.193Z,1.30
2023-12-02T10:55:41.405Z,1.10
2023-12-02T10:58:10.029Z,3.22
2023-12-02T11:00:43.434Z,1.50
2023-12-02T11:03:20.618Z,1.10
2023-12-02T11:06:08.596Z,1.38
2023-12-02T11:08:40.737Z,2.08
2023-12-02T11:11:16.187Z,2.75
2023-12-02T11:13:48.151Z,2.78
2023-12-02T11:16:46.331Z,1.40
2023-12-02T11:19:36.098Z,1.40
2023-12-02T11:22:38.096Z,0.55
2023-12-02T11:25:30.453Z,0.40
2023-12-02T11:28:18.183Z,1.10
2023-12-02T11:30:52.038Z,1.05
2023-12-02T11:33:45.686Z,1.05
2023-12-02T11:36:27.875Z,1.02
2023-12-02T11:39:03.121Z,1.58
2023-12-02T11:41:54.605Z,0.70
2023-12-02T11:44:40.373Z,0.70
2023-12-02T11:47:11.151Z,0.50
2023-12-02T11:50:01.746Z,1.67
2023-12-02T11:53:05.562Z,0.90
2023-12-02T11:56:09.841Z,0.60
2023-12-02T11:59:02.288Z,0.50
2023-12-02T12:02:08.849Z,0.55
2023-12-02T12:40:04.991Z,0.80
2023-12-02T12:42:36.024Z,2.45
2023-12-02T12:45:04.332Z,4.15
2023-12-02T12:47:34.423Z,1.40
2023-12-02T12:50:04.789Z,1.90
2023-12-02T12:52:37.896Z,3.38
2023-12-02T12:55:10.809Z,2.33
2023-12-02T12:57:48.292Z,4.50
2023-12-02T13:00:18.195Z,1.73
2023-12-02T13:03:18.938Z,1.25
2023-12-02T13:05:52.254Z,1.00
2023-12-02T13:08:41.809Z,1.23
2023-12-02T13:11:25.497Z,0.57
2023-12-02T13:14:06.848Z,0.73
2023-12-02T13:16:35.465Z,0.90
2023-12-02T13:19:04.344Z,3.58
2023-12-02T13:21:33.379Z,0.80
2023-12-02T13:24:05.250Z,0.98
2023-12-02T13:26:34.976Z,1.30
2023-12-02T13:29:11.507Z,0.93
2023-12-02T13:31:43.310Z,0.82
2023-12-02T13:34:27.660Z,0.93
2023-12-02T13:37:02.368Z,2.08
2023-12-02T13:39:40.722Z,1.23
2023-12-02T13:42:14.836Z,0.90
2023-12-02T13:44:52.172Z,1.20
2023-12-02T13:47:37.392Z,13.05
2023-12-02T13:50:06.207Z,1.40
2023-12-02T13:53:12.269Z,1.23
2023-12-02T13:56:01.433Z,0.80
2023-12-02T13:58:44.430Z,0.95
2023-12-02T14:01:45.382Z,1.20
2023-12-02T14:04:33.503Z,1.02
2023-12-02T14:07:20.592Z,3.40
2023-12-02T14:09:48.276Z,1.30
2023-12-02T14:12:45.398Z,4.45
2023-12-02T14:15:37.612Z,3.70
2023-12-02T14:18:34.485Z,3.00
2023-12-02T14:21:14.490Z,1.33
2023-12-02T14:24:11.362Z,1.77
2023-12-02T14:31:09.016Z,0.90
2023-12-02T14:33:40.543Z,1.63
2023-12-02T14:36:10.110Z,1.70
2023-12-02T14:38:56.336Z,3.75
2023-12-02T14:41:50.572Z,1.90
2023-12-02T14:44:28.684Z,5.78
2023-12-02T14:47:07.862Z,1.60
2023-12-02T14:49:46.757Z,1.58
2023-12-02T14:52:15.012Z,1.65
2023-12-02T14:54:47.323Z,1.60
2023-12-02T14:57:23.575Z,2.25
2023-12-02T15:02:38.211Z,1.38
2023-12-02T15:05:08.531Z,1.40
2023-12-02T15:07:44.115Z,1.90
2023-12-02T15:10:21.789Z,3.55
2023-12-02T15:12:58.455Z,2.33
2023-12-02T15:15:35.839Z,1.02
2023-12-02T15:18:06.495Z,2.35
2023-12-02T15:20:35.811Z,5.38
2023-12-02T15:23:19.043Z,1.40
2023-12-02T15:25:52.746Z,7.07
2023-12-02T15:28:22.341Z,1.65
2023-12-02T15:30:49.974Z,1.30
2023-12-02T15:33:18.806Z,11.35
2023-12-02T15:35:46.733Z,5.03
2023-12-02T15:38:14.523Z,2.05
2023-12-02T15:40:43.388Z,1.63
2023-12-02T15:43:11.157Z,1.23
2023-12-02T15:45:38.830Z,1.70
2023-12-02T15:48:06.656Z,2.13
2023-12-02T15:50:34.314Z,1.23
2023-12-02T15:53:02.363Z,1.13
2023-12-02T15:55:30.004Z,1.15
2023-12-02T15:58:05.423Z,4.97
2023-12-02T16:01:01.685Z,2.47
2023-12-02T16:03:30.122Z,1.75
2023-12-02T16:05:58.580Z,1.23
2023-12-02T16:08:27.666Z,2.55
2023-12-02T16:11:06.618Z,1.80
2023-12-02T16:13:44.257Z,0.90
2023-12-02T16:16:21.260Z,0.70
2023-12-02T16:18:49.463Z,0.88
2023-12-02T16:21:20.280Z,0.80
2023-12-02T16:23:49.227Z,1.40
2023-12-02T16:26:21.275Z,1.17
2023-12-02T16:28:49.146Z,1.25
2023-12-02T16:31:27.270Z,0.98
2023-12-02T16:33:55.136Z,0.60
2023-12-02T16:36:27.320Z,1.30
2023-12-02T16:39:02.324Z,1.42
2023-12-02T16:41:30.153Z,1.20
2023-12-02T16:43:57.766Z,11.57
2023-12-02T16:46:25.411Z,1.55
2023-12-02T16:48:53.049Z,1.30
2023-12-02T16:51:20.669Z,1.35
2023-12-02T16:53:53.742Z,1.25
2023-12-02T16:56:32.628Z,1.52
2023-12-02T16:59:03.102Z,1.52
2023-12-02T17:01:37.533Z,1.77
2023-12-02T17:04:06.650Z,1.40
2023-12-02T17:06:34.440Z,0.90
2023-12-02T17:09:02.324Z,1.17
2023-12-02T17:11:31.100Z,1.35
2023-12-02T17:14:04.329Z,2.00
2023-12-02T17:16:35.214Z,2.10
2023-12-02T17:19:10.798Z,2.70
2023-12-02T17:21:45.498Z,2.97
2023-12-02T17:24:21.654Z,1.23
2023-12-02T17:26:54.076Z,2.50
2023-12-02T17:29:29.631Z,3.28
2023-12-02T17:31:59.402Z,1.75
2023-12-02T17:34:29.481Z,1.38
2023-12-02T17:37:00.427Z,1.60
2023-12-02T17:39:28.181Z,1.77
2023-12-02T17:41:55.882Z,1.23
2023-12-02T17:44:30.535Z,1.52
2023-12-02T17:46:58.608Z,1.67
2023-12-02T17:49:26.495Z,1.90
2023-12-02T17:51:54.220Z,2.33
2023-12-02T17:54:21.951Z,1.40
2023-12-02T17:56:49.766Z,2.15
2023-12-02T17:59:17.419Z,1.67
2023-12-02T18:01:45.019Z,2.90
2023-12-02T18:04:12.746Z,2.28
2023-12-02T18:06:40.645Z,2.28
2023-12-02T18:22:50.099Z,1.92
2023-12-02T18:25:18.507Z,2.35
2023-12-02T18:27:46.970Z,1.90
2023-12-02T18:30:15.148Z,2.42
2023-12-02T18:32:43.467Z,1.38
2023-12-02T18:35:11.828Z,1.58
2023-12-02T18:37:39.514Z,1.02
2023-12-02T18:40:07.674Z,2.40
2023-12-02T18:42:35.576Z,1.73
2023-12-02T18:45:05.983Z,1.20
2023-12-02T18:47:33.754Z,2.10
2023-12-02T18:50:01.556Z,1.85
2023-12-02T18:52:29.275Z,1.55
2023-12-02T18:54:56.868Z,1.55
2023-12-02T18:57:26.095Z,1.35
2023-12-02T18:59:54.074Z,1.00
2023-12-02T19:02:21.817Z,2.25
2023-12-02T19:04:49.543Z,1.60
2023-12-02T19:07:17.254Z,20.55
2023-12-02T19:09:44.923Z,2.15
2023-12-02T19:12:13.866Z,1.98
2023-12-02T19:14:41.815Z,1.05
2023-12-02T19:17:10.037Z,2.63
2023-12-02T19:19:38.242Z,2.25
2023-12-02T19:22:06.253Z,2.08
2023-12-02T19:24:33.931Z,3.25
2023-12-02T19:27:01.734Z,2.08
2023-12-02T19:29:29.513Z,5.35
2023-12-02T19:31:57.185Z,1.42
2023-12-02T19:34:25.091Z,1.38
2023-12-02T19:36:55.969Z,1.70
2023-12-02T19:39:23.697Z,2.25
2023-12-02T19:41:51.539Z,1.55
2023-12-02T19:44:19.219Z,1.50
2023-12-02T19:46:46.828Z,5.50
2023-12-02T19:49:14.586Z,2.15
2023-12-02T19:51:42.459Z,1.75
2023-12-02T19:54:10.091Z,1.85
2023-12-02T19:56:37.880Z,1.73
2023-12-02T19:59:05.479Z,1.63
2023-12-02T20:01:33.100Z,1.60
2023-12-02T20:04:01.122Z,2.50
2023-12-02T20:06:28.875Z,2.35
2023-12-02T20:08:56.880Z,2.65
2023-12-02T20:11:43.707Z,2.75
2023-12-02T20:14:12.303Z,3.53
2023-12-02T20:16:43.143Z,1.98
2023-12-02T20:19:14.024Z,3.35
2023-12-02T20:21:42.345Z,5.78
2023-12-02T20:24:11.162Z,2.63
2023-12-02T20:26:39.310Z,1.55
2023-12-02T20:29:08.941Z,1.55
2023-12-02T20:31:37.013Z,2.22
2023-12-02T20:34:05.025Z,1.80
2023-12-02T20:36:32.725Z,1.95
2023-12-02T20:39:09.572Z,4.80
2023-12-02T20:41:42.620Z,2.05
2023-12-02T20:44:10.355Z,1.98
2023-12-02T20:46:38.039Z,1.88
2023-12-02T20:49:05.860Z,6.55
2023-12-02T20:51:33.702Z,3.40
2023-12-02T20:54:01.589Z,2.63
2023-12-02T20:56:29.396Z,1.63
2023-12-02T20:58:57.025Z,1.83
2023-12-02T21:01:24.650Z,1.77
2023-12-02T21:03:52.323Z,2.05
2023-12-02T21:06:20.022Z,6.18
2023-12-02T21:08:50.239Z,1.60
2023-12-02T21:11:19.662Z,1.63
2023-12-02T21:13:47.540Z,1.10
2023-12-02T21:16:16.070Z,1.60
2023-12-02T21:18:44.335Z,1.73
2023-12-02T21:21:12.103Z,1.55
2023-12-02T21:23:40.111Z,1.58
2023-12-02T21:26:07.828Z,2.35
2023-12-02T21:28:35.460Z,1.73
2023-12-02T21:31:04.020Z,2.08
2023-12-02T21:33:36.629Z,1.50
2023-12-02T21:36:04.827Z,1.95
2023-12-02T21:38:45.981Z,2.35
2023-12-02T21:41:17.436Z,3.38
2023-12-02T21:43:46.229Z,2.10
2023-12-02T21:46:26.017Z,2.10
2023-12-02T21:49:01.043Z,1.77
2023-12-02T21:51:31.293Z,1.75
2023-12-02T21:54:00.666Z,1.73
2023-12-02T21:56:38.200Z,2.05
2023-12-02T21:59:17.324Z,1.55
2023-12-02T22:01:47.305Z,2.10
2023-12-02T22:04:20.667Z,2.47
2023-12-02T22:07:05.455Z,1.63
2023-12-02T22:09:40.807Z,2.00
2023-12-02T22:12:29.270Z,1.88
2023-12-02T22:15:04.195Z,1.60
2023-12-02T22:17:33.920Z,2.13
2023-12-02T22:20:02.586Z,1.58
2023-12-02T22:22:54.756Z,2.72
2023-12-02T22:25:24.596Z,1.27
2023-12-02T22:28:03.703Z,1.75
2023-12-02T22:30:45.740Z,1.67
2023-12-02T22:33:16.226Z,1.65
2023-12-02T22:35:48.397Z,1.27
2023-12-02T22:38:38.337Z,1.15
2023-12-02T22:41:09.993Z,2.13
2023-12-02T22:43:43.232Z,0.98
2023-12-02T22:46:14.202Z,1.58
2023-12-02T22:48:44.661Z,1.30
2023-12-02T22:51:24.831Z,1.23
2023-12-02T22:53:53.843Z,1.35
2023-12-02T22:56:23.049Z,1.50
2023-12-02T22:58:52.251Z,1.38
2023-12-02T23:01:26.638Z,1.15
2023-12-02T23:03:54.603Z,1.27
2023-12-02T23:06:32.559Z,1.08
2023-12-02T23:09:07.816Z,1.00
2023-12-02T23:11:52.942Z,1.33
2023-12-02T23:14:55.806Z,3.33
2023-12-02T23:17:25.339Z,1.10
2023-12-02T23:19:56.017Z,1.35
2023-12-02T23:22:25.282Z,1.27
2023-12-02T23:24:53.068Z,0.90
2023-12-02T23:27:44.328Z,1.15
2023-12-02T23:30:18.455Z,1.30
2023-12-02T23:32:47.146Z,1.48
2023-12-02T23:35:22.792Z,1.23
2023-12-02T23:37:53.787Z,1.23
2023-12-02T23:40:34.181Z,1.33
2023-12-02T23:43:03.644Z,1.33
2023-12-02T23:45:31.479Z,1.30
2023-12-02T23:47:59.294Z,0.93
2023-12-02T23:50:27.015Z,1.38
2023-12-02T23:52:54.821Z,1.13
2023-12-02T23:55:23.049Z,1.17
2023-12-02T23:57:51.170Z,0.88
